Regal Star — ESCM — position and weather

sailwx.info

Track history (hours):
 
Tides and Currents Weather Stations Pressure Air Temp Water Temp Dewpoint Dewpoint Depression Visibility Wind Speed Wind Dir Waves Ship Positions

Regal Star

Last reported at 2014-Jul-29 18:33 UTC. Time now 2014-Jul-29 19:00 UTC.
Position N 59°24' E 023°44'.

Length 157 m; draft 6.4 m.

Type: Passenger vessel. MMSI: 276554000.

Date/timePositionNaut miles runAvg speedWind from/ knotsBaromVisibWave heightAir tempDewpointWater temp
2014-Jul-29 18:33N 59°24' E 023°44'1211.2
2014-Jul-29 17:31N 59°20' E 024°05'0 0.0
2014-Jul-29 14:31N 59°20' E 024°05'0 0.0
2014-Jul-29 13:31N 59°20' E 024°05'0 0.0
2014-Jul-29 12:31N 59°20' E 024°05'0 0.0
2014-Jul-29 11:31N 59°20' E 024°05'26 3.3
2014-Jul-29 03:25N 59°23' E 023°14'1213.9
2014-Jul-29 02:33N 59°23' E 022°50'1515.1
2014-Jul-29 01:33N 59°24' E 022°21'1815.4
2014-Jul-29 00:24N 59°29' E 021°47'1315.3
2014-Jul-28 23:33N 59°32' E 021°22'5 0.2
2014-Jul-27 23:33N 59°29' E 021°15'6615.4
2014-Jul-27 19:16N 59°22' E 023°24'1115.1
2014-Jul-27 18:32N 59°23' E 023°46'7 2.0
2014-Jul-27 15:13N 59°22' E 023°59'1015.4
2014-Jul-27 14:33N 59°23' E 023°39'1616.1
2014-Jul-27 13:33N 59°23' E 023°07'1615.9
2014-Jul-27 12:33N 59°24' E 022°36'1615.6
2014-Jul-27 11:34N 59°26' E 022°06'1615.7
2014-Jul-27 10:33N 59°31' E 021°37'1615.5
2014-Jul-27 09:33N 59°35' E 021°07'1515.4
2014-Jul-27 08:33N 59°40' E 020°38'4813.9
2014-Jul-27 05:08N 59°43' E 019°04'0 0.0
2014-Jul-27 04:32N 59°43' E 019°04'10 9.1
2014-Jul-27 03:28N 59°46' E 019°22'1415.5
2014-Jul-27 02:34N 59°43' E 019°50'1515.5
2014-Jul-27 01:34N 59°36' E 020°17'1615.8
2014-Jul-27 00:33N 59°32' E 020°48'1515.4
2014-Jul-26 23:34N 59°29' E 021°17'1615.5
2014-Jul-26 22:34N 59°25' E 021°47'1515.4
2014-Jul-26 21:34N 59°22' E 022°16'1515.1
2014-Jul-26 20:34N 59°21' E 022°46'1515.1
2014-Jul-26 19:34N 59°22' E 023°15'1515.2
2014-Jul-26 18:33N 59°23' E 023°45'10 9.7
2014-Jul-26 17:29N 59°20' E 024°05'0 0.0
2014-Jul-26 16:23N 59°20' E 024°05'0 0.0
2014-Jul-26 10:23N 59°20' E 024°05'0 0.0
2014-Jul-26 09:29N 59°20' E 024°05'0 0.0
2014-Jul-26 08:29N 59°20' E 024°05'0 0.0
2014-Jul-26 07:11N 59°20' E 024°05'0 0.0
2014-Jul-26 06:29N 59°20' E 024°05'0 0.0
2014-Jul-26 05:33N 59°20' E 024°05'1110.7
2014-Jul-26 04:33N 59°23' E 023°45'1515.4
2014-Jul-26 03:33N 59°23' E 023°14'1615.8
2014-Jul-26 02:33N 59°23' E 022°43'1615.5
2014-Jul-26 01:33N 59°25' E 022°13'1515.5
2014-Jul-26 00:33N 59°29' E 021°44'1515.5
2014-Jul-25 23:33N 59°33' E 021°14'1515.2
2014-Jul-25 22:33N 59°37' E 020°45'1514.6
2014-Jul-25 21:31N 59°45' E 020°19'38 2.2
2014-Jul-25 04:23N 59°43' E 019°04'910.3
2014-Jul-25 03:33N 59°46' E 019°20'3015.1
2014-Jul-25 01:33N 59°36' E 020°17'1615.7
2014-Jul-25 00:33N 59°32' E 020°47'1615.8
2014-Jul-24 23:33N 59°29' E 021°18'1615.9
2014-Jul-24 22:33N 59°26' E 021°48'1515.3
2014-Jul-24 21:33N 59°23' E 022°18'1414.3
2014-Jul-24 20:33N 59°20' E 022°45'1515.3
2014-Jul-24 19:33N 59°21' E 023°16'1615.6
2014-Jul-24 18:33N 59°22' E 023°46'8 0.6
2014-Jul-24 05:16N 59°21' E 024°01'1114.7
2014-Jul-24 04:33N 59°23' E 023°41'1414.1
2014-Jul-24 03:33N 59°23' E 023°14'1414.2
2014-Jul-24 02:33N 59°23' E 022°45'1715.4
2014-Jul-24 01:25N 59°26' E 022°11'1315.6
2014-Jul-24 00:34N 59°29' E 021°46'1515.3
2014-Jul-23 23:34N 59°33' E 021°17'1615.3
2014-Jul-23 22:30N 59°37' E 020°46'44 2.3
2014-Jul-23 03:34N 59°46' E 019°20'1615.2
2014-Jul-23 02:30N 59°43' E 019°52'3515.2
2014-Jul-23 00:13N 59°31' E 020°56'1116.0
2014-Jul-22 23:34N 59°29' E 021°16'1616.0
2014-Jul-22 22:34N 59°24' E 021°47'1615.6
2014-Jul-22 21:33N 59°20' E 022°16'3415.3
2014-Jul-22 19:21N 59°22' E 023°23'1215.1
2014-Jul-22 18:33N 59°22' E 023°46'1 0.1
2014-Jul-22 04:34N 59°23' E 023°44'1514.7
2014-Jul-22 03:33N 59°23' E 023°15'10414.9
2014-Jul-21 20:33N 59°45' E 019°55'415.6
2014-Jul-21 20:17N 59°45' E 019°47'38 1.9
2014-Jul-21 00:12N 59°31' E 020°56'1015.4
2014-Jul-20 23:33N 59°29' E 021°15'1515.5
2014-Jul-20 22:33N 59°25' E 021°45'1515.4
2014-Jul-20 21:33N 59°22' E 022°14'1515.5
2014-Jul-20 20:33N 59°20' E 022°44'1615.4
2014-Jul-20 19:33N 59°22' E 023°15'1515.3
2014-Jul-20 18:33N 59°23' E 023°44'6 1.3
2014-Jul-20 14:17N 59°22' E 023°34'1916.3
2014-Jul-20 13:05N 59°21' E 022°56'1016.2
2014-Jul-20 12:27N 59°20' E 022°35'1516.0
2014-Jul-20 11:32N 59°23' E 022°07'  
Track history (hours):
 
Tides and Currents Weather Stations Pressure Air Temp Water Temp Dewpoint Dewpoint Depression Visibility Wind Speed Wind Dir Waves Ship Positions

Regal Star

Last reported at 2014-Jul-29 18:33 UTC. Time now 2014-Jul-29 19:00 UTC.
Position N 59°24' E 023°44'.

Length 157 m; draft 6.4 m.

Type: Passenger vessel. MMSI: 276554000.

Date/timePositionNaut miles runAvg speedWind from/ knotsBaromVisibWave heightAir tempDewpointWater temp
2014-Jul-29 18:33N 59°24' E 023°44'1211.2
2014-Jul-29 17:31N 59°20' E 024°05'0 0.0
2014-Jul-29 14:31N 59°20' E 024°05'0 0.0
2014-Jul-29 13:31N 59°20' E 024°05'0 0.0
2014-Jul-29 12:31N 59°20' E 024°05'0 0.0
2014-Jul-29 11:31N 59°20' E 024°05'26 3.3
2014-Jul-29 03:25N 59°23' E 023°14'1213.9
2014-Jul-29 02:33N 59°23' E 022°50'1515.1
2014-Jul-29 01:33N 59°24' E 022°21'1815.4
2014-Jul-29 00:24N 59°29' E 021°47'1315.3
2014-Jul-28 23:33N 59°32' E 021°22'5 0.2
2014-Jul-27 23:33N 59°29' E 021°15'6615.4
2014-Jul-27 19:16N 59°22' E 023°24'1115.1
2014-Jul-27 18:32N 59°23' E 023°46'7 2.0
2014-Jul-27 15:13N 59°22' E 023°59'1015.4
2014-Jul-27 14:33N 59°23' E 023°39'1616.1
2014-Jul-27 13:33N 59°23' E 023°07'1615.9
2014-Jul-27 12:33N 59°24' E 022°36'1615.6
2014-Jul-27 11:34N 59°26' E 022°06'1615.7
2014-Jul-27 10:33N 59°31' E 021°37'1615.5
2014-Jul-27 09:33N 59°35' E 021°07'1515.4
2014-Jul-27 08:33N 59°40' E 020°38'4813.9
2014-Jul-27 05:08N 59°43' E 019°04'0 0.0
2014-Jul-27 04:32N 59°43' E 019°04'10 9.1
2014-Jul-27 03:28N 59°46' E 019°22'1415.5
2014-Jul-27 02:34N 59°43' E 019°50'1515.5
2014-Jul-27 01:34N 59°36' E 020°17'1615.8
2014-Jul-27 00:33N 59°32' E 020°48'1515.4
2014-Jul-26 23:34N 59°29' E 021°17'1615.5
2014-Jul-26 22:34N 59°25' E 021°47'1515.4
2014-Jul-26 21:34N 59°22' E 022°16'1515.1
2014-Jul-26 20:34N 59°21' E 022°46'1515.1
2014-Jul-26 19:34N 59°22' E 023°15'1515.2
2014-Jul-26 18:33N 59°23' E 023°45'10 9.7
2014-Jul-26 17:29N 59°20' E 024°05'0 0.0
2014-Jul-26 16:23N 59°20' E 024°05'0 0.0
2014-Jul-26 10:23N 59°20' E 024°05'0 0.0
2014-Jul-26 09:29N 59°20' E 024°05'0 0.0
2014-Jul-26 08:29N 59°20' E 024°05'0 0.0
2014-Jul-26 07:11N 59°20' E 024°05'0 0.0
2014-Jul-26 06:29N 59°20' E 024°05'0 0.0
2014-Jul-26 05:33N 59°20' E 024°05'1110.7
2014-Jul-26 04:33N 59°23' E 023°45'1515.4
2014-Jul-26 03:33N 59°23' E 023°14'1615.8
2014-Jul-26 02:33N 59°23' E 022°43'1615.5
2014-Jul-26 01:33N 59°25' E 022°13'1515.5
2014-Jul-26 00:33N 59°29' E 021°44'1515.5
2014-Jul-25 23:33N 59°33' E 021°14'1515.2
2014-Jul-25 22:33N 59°37' E 020°45'1514.6
2014-Jul-25 21:31N 59°45' E 020°19'38 2.2
2014-Jul-25 04:23N 59°43' E 019°04'910.3
2014-Jul-25 03:33N 59°46' E 019°20'3015.1
2014-Jul-25 01:33N 59°36' E 020°17'1615.7
2014-Jul-25 00:33N 59°32' E 020°47'1615.8
2014-Jul-24 23:33N 59°29' E 021°18'1615.9
2014-Jul-24 22:33N 59°26' E 021°48'1515.3
2014-Jul-24 21:33N 59°23' E 022°18'1414.3
2014-Jul-24 20:33N 59°20' E 022°45'1515.3
2014-Jul-24 19:33N 59°21' E 023°16'1615.6
2014-Jul-24 18:33N 59°22' E 023°46'8 0.6
2014-Jul-24 05:16N 59°21' E 024°01'1114.7
2014-Jul-24 04:33N 59°23' E 023°41'1414.1
2014-Jul-24 03:33N 59°23' E 023°14'1414.2
2014-Jul-24 02:33N 59°23' E 022°45'1715.4
2014-Jul-24 01:25N 59°26' E 022°11'1315.6
2014-Jul-24 00:34N 59°29' E 021°46'1515.3
2014-Jul-23 23:34N 59°33' E 021°17'1615.3
2014-Jul-23 22:30N 59°37' E 020°46'44 2.3
2014-Jul-23 03:34N 59°46' E 019°20'1615.2
2014-Jul-23 02:30N 59°43' E 019°52'3515.2
2014-Jul-23 00:13N 59°31' E 020°56'1116.0
2014-Jul-22 23:34N 59°29' E 021°16'1616.0
2014-Jul-22 22:34N 59°24' E 021°47'1615.6
2014-Jul-22 21:33N 59°20' E 022°16'3415.3
2014-Jul-22 19:21N 59°22' E 023°23'1215.1
2014-Jul-22 18:33N 59°22' E 023°46'1 0.1
2014-Jul-22 04:34N 59°23' E 023°44'1514.7
2014-Jul-22 03:33N 59°23' E 023°15'10414.9
2014-Jul-21 20:33N 59°45' E 019°55'415.6
2014-Jul-21 20:17N 59°45' E 019°47'38 1.9
2014-Jul-21 00:12N 59°31' E 020°56'1015.4
2014-Jul-20 23:33N 59°29' E 021°15'1515.5
2014-Jul-20 22:33N 59°25' E 021°45'1515.4
2014-Jul-20 21:33N 59°22' E 022°14'1515.5
2014-Jul-20 20:33N 59°20' E 022°44'1615.4
2014-Jul-20 19:33N 59°22' E 023°15'1515.3
2014-Jul-20 18:33N 59°23' E 023°44'6 1.3
2014-Jul-20 14:17N 59°22' E 023°34'1916.3
2014-Jul-20 13:05N 59°21' E 022°56'1016.2
2014-Jul-20 12:27N 59°20' E 022°35'1516.0
2014-Jul-20 11:32N 59°23' E 022°07'  

Dump ship's entire track history